GMFF/FEZ METAR and TAF weather

Enter ICAO airport designator
Station Type Date Time Source
GMFF METAR 2020/02/26 10:30 UTC NOAA

GMFF 261030Z 03003KT 290V100 9999 SCT016 14/08 Q1026 BECMG 9999 SCT016


Station Type Date Time Source
GMFF Decoded METAR 2020/02/26 10:30 UTC NOAA

Fes-Sais, Morocco (GMFF) 33-56N 004-59W 579M
Feb 26, 2020 - 05:30 AM EST / 2020.02.26 1030 UTC
Wind: from the NNE (030 degrees) at 3 MPH (3 KT) (direction variable):0
Visibility: greater than 7 mile(s):0
Sky conditions: partly cloudy
Temperature: 57 F (14 C)
Dew Point: 46 F (8 C)
Relative Humidity: 67%
Pressure (altimeter): 30.30 in. Hg (1026 hPa)
ob: GMFF 261030Z 03003KT 290V100 9999 SCT016 14/08 Q1026 BECMG 9999 SCT016
cycle: 10

Station Type Date Time Source
GMFF TAF 2020/02/26 06:27 UTC NOAA

TAF TAF GMFF 260500Z 2606/2712 20004KT 6000 BKN007
TEMPO 2606/2608 3000 BR
BECMG 2608/2610 32010KT CAVOK

Example: see airport list